CheckWX is a tool to help pilots better visualize weather data.  It is not intended as a substitute for an official pre-flight weather briefing.

07:25:48 UTC

KFIT METAR
Fitchburg Municipal Airport
Fitchburg, Massachusetts, USA
Current

34 mins ago

KFIT 290652Z AUTO 18005KT 10SM OVC016 22/19 A3005 RMK AO2 SLP173 T02170189
Observed
May-29 @ 06:52 UTC
Wind
  • 180° at 5 KTS
Visibility
Flight Rules
MVFR
Cloud Levels
  • Overcast at 1,600' AGL
Temperature
22°C / 72°F
Dewpoint
19°C / 66°F
Humidity
83%
Altimeter
30.05" Hg
Pressure
1017.62 hPa
Previous

1 hour ago

KFIT 290606Z AUTO 18005KT 10SM BKN016 BKN020 OVC039 22/19 A3005 RMK AO2 T02170189
Observed
May-29 @ 06:06 UTC
Wind
  • 180° at 5 KTS
Visibility
Flight Rules
MVFR
Cloud Levels
  • Broken at 1,600' AGL
  • Broken at 2,000' AGL
  • Overcast at 3,900' AGL
Temperature
22°C / 72°F
Dewpoint
19°C / 66°F
Humidity
83%
Altimeter
30.05" Hg
Pressure
1017.62 hPa
Previous

2 hours ago

KFIT 290552Z AUTO 18005KT 10SM BKN014 BKN019 OVC026 22/19 A3006 RMK AO2 SLP176 T02170189 10233 20211 56009
Observed
May-29 @ 05:52 UTC
Wind
  • 180° at 5 KTS
Visibility
Flight Rules
MVFR
Cloud Levels
  • Broken at 1,400' AGL
  • Broken at 1,900' AGL
  • Overcast at 2,600' AGL
Temperature
22°C / 72°F
Dewpoint
19°C / 66°F
Humidity
83%
Altimeter
30.06" Hg
Pressure
1017.92 hPa